Time;durP1;ratioP1;P1;durP2;ratioP2;P2;SDS_P1;SDS_P2;PMS_P1;PMS_P2;Temp;Humidity;BMP_temperature;BMP_pressure;BME280_temperature;BME280_humidity;BME280_pressure;Samples;Min_cycle;Max_cycle;Signal;HPM_P1;HPM_P2
2022/05/10 00:01:58;;;;;;;20.25;10.40;;;;;;;11.23;100.00;101878.25;4703876;29;20043;-71
2022/05/10 00:04:23;;;;;;;24.13;10.30;;;;;;;11.24;100.00;101874.56;4718277;29;20523;-72
2022/05/10 00:06:49;;;;;;;25.67;11.60;;;;;;;11.26;100.00;101871.66;4712149;29;20164;-72
2022/05/10 00:09:20;;;;;;;22.58;11.85;;;;;;;11.33;100.00;101875.25;4723984;29;20042;-71
2022/05/10 00:11:46;;;;;;;25.98;10.95;;;;;;;11.35;100.00;101870.50;4717618;29;20055;-72
2022/05/10 00:14:12;;;;;;;19.60;10.68;;;;;;;11.42;100.00;101863.31;4716900;29;23251;-72
2022/05/10 00:16:43;;;;;;;23.35;11.57;;;;;;;11.54;100.00;101863.59;4718765;29;20044;-72
2022/05/10 00:19:12;;;;;;;17.13;10.43;;;;;;;11.64;100.00;101856.84;4724845;29;20070;-72
2022/05/10 00:21:38;;;;;;;18.98;9.93;;;;;;;11.71;100.00;101860.44;4731758;29;20449;-73
2022/05/10 00:24:03;;;;;;;20.42;10.30;;;;;;;11.74;100.00;101869.19;4716725;29;20050;-72
2022/05/10 00:26:29;;;;;;;20.90;9.85;;;;;;;11.74;100.00;101856.50;4730592;29;20434;-72
2022/05/10 00:28:54;;;;;;;18.00;10.63;;;;;;;11.76;100.00;101857.16;4710831;29;20048;-72
2022/05/10 00:31:20;;;;;;;21.08;9.95;;;;;;;11.77;100.00;101856.13;4720851;29;20576;-72
2022/05/10 00:33:45;;;;;;;22.05;10.52;;;;;;;11.77;100.00;101853.44;4716596;29;20043;-72
2022/05/10 00:36:12;;;;;;;18.88;9.55;;;;;;;11.83;100.00;101858.06;4715570;29;20054;-72
2022/05/10 00:38:38;;;;;;;22.77;9.80;;;;;;;11.86;100.00;101856.84;4715504;29;20047;-72
2022/05/10 00:41:20;;;;;;;21.77;10.68;;;;;;;11.78;100.00;101851.56;4712299;29;20127;-71
2022/05/10 00:43:51;;;;;;;22.48;10.45;;;;;;;11.76;100.00;101846.38;4715919;29;20050;-71
2022/05/10 00:46:25;;;;;;;20.73;10.32;;;;;;;11.67;100.00;101851.06;4702233;29;21029;-71
2022/05/10 00:49:05;;;;;;;19.38;9.82;;;;;;;11.66;100.00;101845.88;4732225;29;20058;-71
2022/05/10 00:51:46;;;;;;;21.83;9.70;;;;;;;11.63;100.00;101852.50;4702974;29;20109;-72
2022/05/10 00:54:33;;;;;;;15.00;8.95;;;;;;;11.61;100.00;101841.03;4736079;29;20039;-72
2022/05/10 00:57:22;;;;;;;26.02;10.75;;;;;;;11.57;100.00;101852.44;4706288;29;20091;-72
2022/05/10 01:00:09;;;;;;;22.58;10.65;;;;;;;11.55;100.00;101844.53;4736070;29;20039;-72
2022/05/10 01:02:57;;;;;;;19.83;10.13;;;;;;;11.64;100.00;101848.75;4720917;29;20059;-72
2022/05/10 01:05:23;;;;;;;17.25;10.02;;;;;;;11.59;100.00;101848.50;4735538;29;20178;-72
2022/05/10 01:07:57;;;;;;;25.27;10.07;;;;;;;11.56;100.00;101846.19;4722076;29;20051;-71
2022/05/10 01:10:31;;;;;;;20.63;9.85;;;;;;;11.75;100.00;101838.44;4735460;29;20154;-73
2022/05/10 01:13:05;;;;;;;20.30;9.80;;;;;;;11.80;100.00;101833.31;4733001;29;20475;-73
2022/05/10 01:15:31;;;;;;;21.20;8.70;;;;;;;11.81;100.00;101834.97;4724619;29;20138;-73
2022/05/10 01:17:58;;;;;;;18.30;9.32;;;;;;;11.79;100.00;101827.06;4719730;29;20504;-73
2022/05/10 01:20:37;;;;;;;21.45;9.02;;;;;;;11.81;100.00;101829.56;4706791;29;20051;-73
2022/05/10 01:23:34;;;;;;;12.70;7.90;;;;;;;11.84;100.00;101821.13;4735310;29;20145;-73
2022/05/10 01:26:04;;;;;;;17.88;8.98;;;;;;;11.86;100.00;101810.94;4720387;29;20079;-71
2022/05/10 01:28:34;;;;;;;18.77;8.80;;;;;;;11.89;100.00;101813.25;4717498;29;20047;-71
2022/05/10 01:31:03;;;;;;;18.75;9.10;;;;;;;11.89;100.00;101814.06;4702136;29;20050;-72
2022/05/10 01:33:48;;;;;;;22.80;8.30;;;;;;;11.92;100.00;101797.47;4718489;29;20154;-71
2022/05/10 01:36:23;;;;;;;18.00;8.32;;;;;;;11.97;100.00;101804.16;4692689;29;20055;-72
2022/05/10 01:39:02;;;;;;;16.65;7.75;;;;;;;11.86;100.00;101787.50;4735289;29;20058;-72
2022/05/10 01:41:41;;;;;;;17.05;8.30;;;;;;;11.82;100.00;101791.56;4720502;29;20062;-72
2022/05/10 01:44:30;;;;;;;15.07;7.93;;;;;;;11.79;100.00;101778.47;4732326;29;20039;-71
2022/05/10 01:47:24;;;;;;;17.67;8.15;;;;;;;11.77;100.00;101783.25;4706444;29;20058;-70
2022/05/10 01:49:54;;;;;;;;;;;;;;;11.73;100.00;101775.75;4720879;29;20087;-70
2022/05/10 01:52:25;;;;;;;14.27;6.68;;;;;;;11.67;100.00;101775.50;4710123;29;22777;-70
2022/05/10 01:54:57;;;;;;;15.98;8.30;;;;;;;11.72;100.00;101772.19;4731219;29;20051;-71
2022/05/10 01:57:22;;;;;;;21.58;9.00;;;;;;;11.69;100.00;101765.34;4726883;29;20070;-70
2022/05/10 01:59:52;;;;;;;15.32;8.30;;;;;;;11.62;100.00;101764.47;4708176;29;20103;-70
2022/05/10 02:02:20;;;;;;;24.90;8.70;;;;;;;11.55;100.00;101763.59;4715508;29;20036;-70
2022/05/10 02:04:46;;;;;;;23.50;10.63;;;;;;;11.51;100.00;101761.47;4699793;29;20047;-70
2022/05/10 02:07:19;;;;;;;19.40;9.30;;;;;;;11.44;100.00;101764.97;4712443;29;20047;-70
2022/05/10 02:09:49;;;;;;;20.23;8.88;;;;;;;11.39;100.00;101763.88;4701711;29;20152;-69
2022/05/10 02:12:19;;;;;;;16.92;8.00;;;;;;;11.33;100.00;101753.84;4718619;29;20126;-70
2022/05/10 02:15:00;;;;;;;14.60;8.20;;;;;;;11.33;100.00;101754.69;4716100;29;20065;-70
2022/05/10 02:17:49;;;;;;;19.13;8.15;;;;;;;11.34;100.00;101755.53;4732046;29;20078;-70
2022/05/10 02:20:20;;;;;;;22.20;9.25;;;;;;;11.35;100.00;101757.19;4711991;29;20163;-71
2022/05/10 02:23:14;;;;;;;15.38;8.15;;;;;;;11.34;100.00;101760.94;4717635;29;20046;-72
2022/05/10 02:25:46;;;;;;;15.93;8.25;;;;;;;11.30;100.00;101747.00;4704788;29;20183;-72
2022/05/10 02:28:41;;;;;;;20.15;8.45;;;;;;;11.30;100.00;101754.25;4727490;29;21061;-72
2022/05/10 02:31:13;;;;;;;15.70;8.68;;;;;;;11.27;100.00;101750.09;4716543;29;20057;-71
2022/05/10 02:33:41;;;;;;;20.75;9.05;;;;;;;11.27;100.00;101749.22;4716817;29;20050;-72
2022/05/10 02:36:06;;;;;;;17.48;8.82;;;;;;;11.31;100.00;101745.97;4717195;29;20190;-72
2022/05/10 02:38:37;;;;;;;19.83;8.57;;;;;;;11.45;100.00;101739.66;4708677;29;20059;-72
2022/05/10 02:41:12;;;;;;;17.60;8.13;;;;;;;11.52;100.00;101739.69;4735978;29;20050;-72
2022/05/10 02:43:46;;;;;;;23.15;7.97;;;;;;;11.65;100.00;101738.94;4701402;29;25050;-72
2022/05/10 02:46:11;;;;;;;15.18;8.68;;;;;;;11.69;100.00;101743.75;4731734;29;20082;-72
2022/05/10 02:48:38;;;;;;;16.98;8.82;;;;;;;11.80;100.00;101734.25;4720497;29;20066;-72
2022/05/10 02:51:04;;;;;;;16.70;8.90;;;;;;;11.79;100.00;101729.03;4717793;29;20045;-72
2022/05/10 02:53:30;;;;;;;21.75;9.35;;;;;;;11.78;100.00;101724.69;4720272;29;20127;-71
2022/05/10 02:55:56;;;;;;;18.63;8.63;;;;;;;11.88;100.00;101726.03;4733043;29;20039;-71
2022/05/10 02:58:44;;;;;;;15.18;8.45;;;;;;;11.93;100.00;101725.41;4714633;29;20150;-70
2022/05/10 03:01:35;;;;;;;20.05;8.80;;;;;;;12.03;100.00;101723.19;4734236;29;20046;-71
2022/05/10 03:04:01;;;;;;;16.13;8.80;;;;;;;12.17;100.00;101714.09;4706578;29;20342;-71
2022/05/10 03:06:28;;;;;;;21.10;8.93;;;;;;;12.24;100.00;101719.53;4717045;29;20102;-71
2022/05/10 03:08:54;;;;;;;16.85;8.48;;;;;;;12.32;100.00;101715.81;4730934;29;20046;-71
2022/05/10 03:11:19;;;;;;;25.23;10.23;;;;;;;12.29;100.00;101722.47;4718225;29;20063;-71
2022/05/10 03:13:47;;;;;;;19.30;8.88;;;;;;;12.25;100.00;101714.94;4716708;29;20046;-71
2022/05/10 03:16:13;;;;;;;21.02;9.65;;;;;;;12.30;100.00;101712.50;4688262;29;20063;-71
2022/05/10 03:18:39;;;;;;;23.92;9.70;;;;;;;12.28;100.00;101703.75;4733096;29;20043;-72
2022/05/10 03:21:04;;;;;;;21.90;9.55;;;;;;;12.32;100.00;101705.00;4718253;29;20108;-72
2022/05/10 03:23:30;;;;;;;17.60;9.27;;;;;;;12.37;100.00;101697.13;4735240;29;20047;-71
2022/05/10 03:25:56;;;;;;;21.23;9.48;;;;;;;12.38;100.00;101709.59;4731980;29;20055;-72
2022/05/10 03:28:23;;;;;;;23.67;9.98;;;;;;;12.45;100.00;101694.22;4720991;29;20064;-72
2022/05/10 03:30:48;;;;;;;23.15;10.18;;;;;;;12.54;100.00;101693.00;4720594;29;20043;-72
2022/05/10 03:33:14;;;;;;;17.95;9.23;;;;;;;12.56;100.00;101692.78;4704033;29;20079;-72
2022/05/10 03:35:40;;;;;;;24.02;9.68;;;;;;;12.55;100.00;101691.97;4732867;29;20066;-72
2022/05/10 03:38:07;;;;;;;16.92;9.93;;;;;;;12.64;100.00;101682.63;4716706;29;20051;-73
2022/05/10 03:40:32;;;;;;;18.05;9.63;;;;;;;12.60;100.00;101686.78;4717293;29;20035;-71
2022/05/10 03:42:58;;;;;;;23.35;10.02;;;;;;;12.54;100.00;101686.78;4703606;29;20040;-73
2022/05/10 03:45:23;;;;;;;18.17;9.65;;;;;;;12.48;100.00;101685.72;4708055;29;20038;-72
2022/05/10 03:47:50;;;;;;;21.98;9.95;;;;;;;12.46;100.00;101678.84;4733657;29;20059;-72
2022/05/10 03:50:19;;;;;;;18.92;9.32;;;;;;;12.45;100.00;101682.59;4717335;29;20051;-72
2022/05/10 03:52:45;;;;;;;15.60;9.48;;;;;;;12.43;100.00;101685.50;4715201;29;20038;-72
2022/05/10 03:55:13;;;;;;;19.30;10.00;;;;;;;12.36;100.00;101684.66;4716745;29;20074;-72
2022/05/10 03:57:39;;;;;;;20.90;10.98;;;;;;;12.35;100.00;101688.38;4717359;29;20531;-71
2022/05/10 04:00:11;;;;;;;25.67;10.90;;;;;;;12.32;100.00;101683.38;4717478;29;20128;-71
2022/05/10 04:02:36;;;;;;;22.45;9.70;;;;;;;12.32;100.00;101689.66;4733175;29;20062;-71
2022/05/10 04:05:03;;;;;;;18.23;10.57;;;;;;;12.44;100.00;101681.75;4702849;29;20050;-70
2022/05/10 04:07:29;;;;;;;18.48;10.35;;;;;;;12.49;100.00;101673.84;4716490;29;20055;-70
2022/05/10 04:09:55;;;;;;;19.98;9.63;;;;;;;12.54;100.00;101678.69;4733302;29;20119;-73
2022/05/10 04:12:20;;;;;;;18.48;10.10;;;;;;;12.54;100.00;101674.09;4718815;29;20514;-72
2022/05/10 04:14:46;;;;;;;19.75;9.43;;;;;;;12.59;100.00;101671.59;4734549;29;20969;-73
2022/05/10 04:17:11;;;;;;;25.10;10.60;;;;;;;12.74;100.00;101681.38;4718414;29;20039;-73
2022/05/10 04:19:36;;;;;;;25.00;10.63;;;;;;;12.74;100.00;101676.84;4716958;29;20151;-72
2022/05/10 04:22:02;;;;;;;20.35;10.60;;;;;;;12.77;100.00;101686.38;4717508;29;20048;-72
2022/05/10 04:24:28;;;;;;;20.55;10.57;;;;;;;12.75;100.00;101673.06;4732930;29;20054;-72
2022/05/10 04:26:53;;;;;;;22.17;11.43;;;;;;;12.82;100.00;101678.50;4730512;29;20046;-72
2022/05/10 04:29:18;;;;;;;27.58;11.20;;;;;;;12.93;100.00;101680.56;4732282;29;20088;-73
2022/05/10 04:31:44;;;;;;;22.33;11.15;;;;;;;13.02;100.00;101679.34;4737312;29;20035;-72
2022/05/10 04:34:09;;;;;;;29.08;11.65;;;;;;;13.04;100.00;101671.81;4723787;29;20158;-72
2022/05/10 04:36:35;;;;;;;22.42;11.35;;;;;;;13.08;100.00;101673.06;4740590;29;20051;-72
2022/05/10 04:39:00;;;;;;;22.48;10.57;;;;;;;13.02;100.00;101667.66;4725479;29;20054;-72
2022/05/10 04:41:31;;;;;;;25.63;11.50;;;;;;;13.07;100.00;101678.69;4739992;29;20142;-72
2022/05/10 04:44:06;;;;;;;28.20;11.35;;;;;;;13.11;100.00;101678.06;4725038;29;20173;-72
2022/05/10 04:46:35;;;;;;;19.70;11.30;;;;;;;13.25;100.00;101672.69;4738225;29;20094;-72
2022/05/10 04:49:01;;;;;;;22.63;11.95;;;;;;;13.31;100.00;101671.84;4711421;29;20471;-73
2022/05/10 04:51:26;;;;;;;21.77;12.18;;;;;;;13.37;100.00;101673.69;4733813;29;20039;-72
2022/05/10 04:53:52;;;;;;;24.23;11.73;;;;;;;13.43;100.00;101669.31;4718294;29;20038;-72
2022/05/10 04:56:17;;;;;;;21.75;11.15;;;;;;;13.44;100.00;101663.66;4715799;29;20468;-72
2022/05/10 04:58:43;;;;;;;21.02;11.55;;;;;;;13.53;100.00;101673.25;4731009;29;20047;-72
2022/05/10 05:01:10;;;;;;;22.42;10.88;;;;;;;13.62;100.00;101673.84;4731037;29;20497;-72
2022/05/10 05:03:35;;;;;;;19.85;11.98;;;;;;;13.67;100.00;101665.91;4738334;29;20284;-72
2022/05/10 05:06:01;;;;;;;18.13;11.43;;;;;;;13.77;100.00;101670.88;4724971;29;20079;-71
2022/05/10 05:08:27;;;;;;;21.35;11.55;;;;;;;13.84;100.00;101666.28;4719718;29;20039;-71
2022/05/10 05:10:54;;;;;;;20.58;11.52;;;;;;;13.84;100.00;101667.09;4739072;29;20043;-72
2022/05/10 05:13:19;;;;;;;23.45;12.25;;;;;;;13.89;100.00;101663.75;4724812;29;20050;-71
2022/05/10 05:15:45;;;;;;;23.55;12.10;;;;;;;13.97;100.00;101665.38;4741314;29;20047;-71
2022/05/10 05:18:10;;;;;;;20.73;12.13;;;;;;;14.00;100.00;101667.66;4723433;29;20051;-71
2022/05/10 05:20:37;;;;;;;18.90;12.00;;;;;;;14.01;100.00;101672.03;4738129;29;20046;-71
2022/05/10 05:23:08;;;;;;;24.73;12.60;;;;;;;14.04;100.00;101667.03;4722820;29;20090;-74
2022/05/10 05:25:34;;;;;;;27.10;12.52;;;;;;;14.12;100.00;101662.41;4739687;29;23462;-72
2022/05/10 05:28:00;;;;;;;29.20;12.48;;;;;;;14.10;100.00;101649.06;4724718;29;23899;-70
2022/05/10 05:30:25;;;;;;;34.45;14.15;;;;;;;14.33;100.00;101671.03;4740377;29;20066;-71
2022/05/10 05:32:51;;;;;;;29.73;13.45;;;;;;;14.40;100.00;101665.56;4747962;29;21272;-72
2022/05/10 05:35:16;;;;;;;34.63;13.63;;;;;;;14.47;100.00;101666.38;4722581;29;20051;-71
2022/05/10 05:37:42;;;;;;;29.38;14.20;;;;;;;14.52;100.00;101657.59;4721815;29;20063;-70
2022/05/10 05:40:10;;;;;;;37.17;13.35;;;;;;;14.56;100.00;101665.06;4706224;29;20551;-70
2022/05/10 05:42:36;;;;;;;31.38;12.98;;;;;;;14.69;100.00;101657.91;4717805;29;20071;-71
2022/05/10 05:45:04;;;;;;;30.92;13.25;;;;;;;14.75;100.00;101665.16;4705626;29;20046;-71
2022/05/10 05:47:30;;;;;;;22.08;13.35;;;;;;;14.86;100.00;101655.47;4715876;29;20441;-70
2022/05/10 05:49:55;;;;;;;26.05;12.40;;;;;;;15.02;100.00;101646.75;4706633;29;20051;-72
2022/05/10 05:52:22;;;;;;;28.65;13.68;;;;;;;15.14;100.00;101644.16;4735009;29;20130;-70
2022/05/10 05:54:49;;;;;;;30.02;12.85;;;;;;;15.28;100.00;101646.50;4735122;29;20041;-71
2022/05/10 05:57:15;;;;;;;24.98;13.25;;;;;;;15.38;100.00;101646.00;4708301;29;20066;-71
2022/05/10 05:59:40;;;;;;;26.80;13.05;;;;;;;15.55;100.00;101640.81;4735367;29;20084;-71
2022/05/10 06:02:11;;;;;;;31.48;12.75;;;;;;;15.62;100.00;101643.41;4719805;29;20094;-70
2022/05/10 06:04:37;;;;;;;20.95;12.20;;;;;;;15.75;100.00;101649.56;4706503;29;20108;-70
2022/05/10 06:07:02;;;;;;;28.98;12.70;;;;;;;15.83;100.00;101648.44;4718786;29;20105;-71
2022/05/10 06:09:28;;;;;;;24.20;12.02;;;;;;;15.96;100.00;101639.28;4731621;29;20054;-70
2022/05/10 06:11:53;;;;;;;16.67;11.68;;;;;;;16.06;100.00;101633.28;4731411;29;20678;-70
2022/05/10 06:14:18;;;;;;;21.50;12.10;;;;;;;16.14;100.00;101635.69;4723407;29;20050;-70
2022/05/10 06:16:45;;;;;;;21.08;12.20;;;;;;;16.23;100.00;101634.31;4729790;29;20127;-71
2022/05/10 06:19:11;;;;;;;19.45;11.25;;;;;;;16.48;100.00;101633.31;4717193;29;20057;-71
2022/05/10 06:21:36;;;;;;;20.85;12.05;;;;;;;16.69;100.00;101632.78;4714369;29;20452;-70
2022/05/10 06:24:02;;;;;;;24.73;12.35;;;;;;;16.89;94.69;101636.03;4715968;29;20047;-71
2022/05/10 06:26:28;;;;;;;25.73;12.07;;;;;;;17.06;92.77;101629.84;4716750;29;20053;-70
2022/05/10 06:28:53;;;;;;;18.80;11.20;;;;;;;17.28;91.10;101628.19;4717602;29;20047;-71
2022/05/10 06:31:18;;;;;;;20.17;11.98;;;;;;;17.69;85.02;101626.34;4733798;29;22735;-71
2022/05/10 06:33:44;;;;;;;17.65;10.77;;;;;;;18.33;79.03;101632.53;4733641;29;20047;-70
2022/05/10 06:36:09;;;;;;;20.00;11.52;;;;;;;19.03;73.12;101628.53;4721504;29;20051;-70
2022/05/10 06:38:36;;;;;;;17.73;11.35;;;;;;;19.76;65.86;101615.59;4734797;29;20046;-71
2022/05/10 06:41:04;;;;;;;17.40;11.00;;;;;;;20.42;60.20;101617.34;4684769;29;20512;-72
2022/05/10 06:43:35;;;;;;;25.95;11.07;;;;;;;21.02;57.20;101610.72;4716288;29;20036;-71
2022/05/10 06:46:01;;;;;;;21.88;10.30;;;;;;;21.61;53.77;101607.78;4716932;29;20062;-71
2022/05/10 06:48:28;;;;;;;21.75;10.43;;;;;;;22.34;51.62;101601.41;4732844;29;22212;-70
2022/05/10 06:50:53;;;;;;;16.55;9.95;;;;;;;22.71;50.09;101603.88;4702533;29;20042;-73
2022/05/10 06:53:19;;;;;;;16.63;8.93;;;;;;;22.18;50.36;101594.22;4733804;29;20062;-71
2022/05/10 06:55:44;;;;;;;20.20;9.82;;;;;;;22.13;50.82;101601.34;4733366;29;20035;-71
2022/05/10 06:58:10;;;;;;;20.90;10.10;;;;;;;22.12;51.09;101602.44;4700723;29;20043;-71
2022/05/10 07:00:38;;;;;;;16.55;9.32;;;;;;;22.18;50.79;101589.56;4734905;29;20039;-71
2022/05/10 07:03:12;;;;;;;20.20;9.00;;;;;;;22.45;50.92;101592.06;4703240;29;20071;-71
2022/05/10 07:05:40;;;;;;;13.88;8.50;;;;;;;22.26;50.38;101588.22;4701791;29;20606;-71
2022/05/10 07:08:05;;;;;;;15.80;8.23;;;;;;;21.82;51.35;101591.38;4702113;29;20051;-71
2022/05/10 07:10:31;;;;;;;15.55;8.88;;;;;;;22.20;51.79;101581.06;4734967;29;20569;-71
2022/05/10 07:12:58;;;;;;;13.48;7.82;;;;;;;22.43;50.26;101569.56;4701624;29;20062;-71
2022/05/10 07:15:23;;;;;;;19.00;6.80;;;;;;;22.74;49.92;101577.75;4733734;29;20094;-71
2022/05/10 07:17:49;;;;;;;12.95;6.95;;;;;;;23.14;47.86;101576.91;4736396;29;20039;-72
2022/05/10 07:20:17;;;;;;;13.98;6.43;;;;;;;23.80;46.77;101559.31;4717024;29;20063;-72
2022/05/10 07:22:43;;;;;;;11.48;5.95;;;;;;;24.18;45.08;101554.06;4736373;29;20035;-71
2022/05/10 07:25:12;;;;;;;12.40;4.80;;;;;;;24.92;44.04;101547.38;4719844;29;20071;-71
2022/05/10 07:27:39;;;;;;;14.18;6.78;;;;;;;24.93;42.69;101542.69;4734149;29;20082;-71
2022/05/10 07:30:05;;;;;;;10.75;6.50;;;;;;;24.25;43.68;101546.31;4716946;29;20051;-72
2022/05/10 07:32:30;;;;;;;13.57;6.50;;;;;;;23.70;45.09;101540.94;4731996;29;20039;-73
2022/05/10 07:34:55;;;;;;;16.80;6.40;;;;;;;23.39;46.38;101534.75;4731719;29;20058;-72
2022/05/10 07:37:21;;;;;;;16.20;7.05;;;;;;;23.27;45.74;101534.22;4725949;29;20108;-71
2022/05/10 07:39:46;;;;;;;16.33;6.40;;;;;;;23.46;45.09;101527.00;4732759;29;20116;-71
2022/05/10 07:42:12;;;;;;;16.08;7.38;;;;;;;23.21;45.47;101524.38;4728384;29;20495;-71
2022/05/10 07:44:37;;;;;;;18.40;6.63;;;;;;;23.01;46.00;101528.84;4734350;29;20580;-71
2022/05/10 07:47:03;;;;;;;17.05;6.38;;;;;;;22.86;46.32;101521.44;4719228;29;20066;-72
2022/05/10 07:49:28;;;;;;;13.85;6.07;;;;;;;22.80;46.47;101508.00;4733246;29;20062;-72
2022/05/10 07:51:54;;;;;;;14.75;6.22;;;;;;;23.46;45.32;101505.00;4720481;29;20660;-71
2022/05/10 07:54:19;;;;;;;16.63;5.82;;;;;;;24.02;44.39;101501.91;4706562;29;20130;-71
2022/05/10 07:56:45;;;;;;;19.65;5.65;;;;;;;23.98;43.16;101511.84;4731636;29;20091;-71
2022/05/10 07:59:10;;;;;;;11.40;5.00;;;;;;;24.25;43.41;101516.88;4720856;29;20051;-70
2022/05/10 08:01:36;;;;;;;10.85;5.10;;;;;;;24.93;42.25;101504.91;4730040;29;20039;-70
2022/05/10 08:04:01;;;;;;;14.95;5.20;;;;;;;24.63;41.18;101511.56;4715675;29;20047;-70
2022/05/10 08:06:27;;;;;;;13.75;4.85;;;;;;;24.58;41.88;101508.06;4730513;29;20634;-70
2022/05/10 08:08:53;;;;;;;10.93;4.47;;;;;;;24.49;42.19;101507.84;4703340;29;20077;-71
2022/05/10 08:11:18;;;;;;;9.43;3.90;;;;;;;24.38;42.88;101507.09;4713861;29;20114;-70
2022/05/10 08:13:44;;;;;;;18.20;4.90;;;;;;;24.48;41.94;101512.56;4712684;29;20054;-70
2022/05/10 08:16:10;;;;;;;12.95;5.22;;;;;;;24.56;41.45;101511.09;4721065;29;20042;-70
2022/05/10 08:18:37;;;;;;;9.85;4.43;;;;;;;24.81;42.13;101518.25;4730564;29;24259;-71
2022/05/10 08:21:03;;;;;;;13.15;4.95;;;;;;;25.15;41.76;101506.34;4717874;29;20055;-71
2022/05/10 08:23:31;;;;;;;14.88;5.07;;;;;;;25.73;40.22;101495.06;4717371;29;20058;-71
2022/05/10 08:25:58;;;;;;;14.13;4.28;;;;;;;25.57;39.69;101497.22;4717543;29;20073;-70
2022/05/10 08:28:24;;;;;;;15.95;4.85;;;;;;;25.29;40.83;101496.22;4697625;29;20043;-70
2022/05/10 08:30:51;;;;;;;7.53;4.00;;;;;;;25.30;41.30;101486.81;4719597;29;20059;-70
2022/05/10 08:33:37;;;;;;;13.60;4.25;;;;;;;25.27;41.01;101486.59;4731561;29;20039;-71
2022/05/10 08:36:02;;;;;;;9.77;4.05;;;;;;;25.11;41.30;101486.00;4719479;29;20059;-71
2022/05/10 08:38:30;;;;;;;13.45;4.68;;;;;;;25.02;40.01;101479.44;4732236;29;20051;-70
2022/05/10 08:41:24;;;;;;;14.55;4.70;;;;;;;24.94;40.56;101470.72;4732668;29;20062;-71
2022/05/10 08:44:11;;;;;;;14.10;5.05;;;;;;;24.85;40.93;101469.75;4699413;29;20050;-71
2022/05/10 08:46:38;;;;;;;12.77;4.65;;;;;;;24.74;42.32;101473.72;4731162;29;20054;-70
2022/05/10 08:49:10;;;;;;;15.80;4.80;;;;;;;24.26;42.16;101459.88;4700181;29;20051;-71
2022/05/10 08:51:36;;;;;;;19.85;5.03;;;;;;;24.11;42.36;101452.56;4716470;29;20038;-70
2022/05/10 08:54:02;;;;;;;13.43;4.78;;;;;;;24.15;43.07;101455.56;4716583;29;20596;-69
2022/05/10 08:56:39;;;;;;;9.35;4.55;;;;;;;24.16;42.46;101455.28;4730889;29;20066;-70
2022/05/10 08:59:34;;;;;;;10.90;4.30;;;;;;;23.89;43.04;101469.53;4719213;29;20146;-69
2022/05/10 09:02:17;;;;;;;15.00;5.13;;;;;;;23.95;43.42;101457.41;4729657;29;20043;-70
2022/05/10 09:04:55;;;;;;;11.73;4.63;;;;;;;24.00;43.63;101454.59;4714674;29;20058;-71
2022/05/10 09:07:35;;;;;;;14.43;4.57;;;;;;;23.93;43.64;101447.78;4735862;29;20056;-70
2022/05/10 09:10:17;;;;;;;10.18;4.55;;;;;;;24.05;43.45;101440.81;4722583;29;20177;-71
2022/05/10 09:12:46;;;;;;;11.45;5.13;;;;;;;23.87;43.59;101448.91;4723438;29;20520;-71
2022/05/10 09:15:12;;;;;;;12.60;4.55;;;;;;;23.71;44.14;101435.28;4715553;29;20492;-70
2022/05/10 09:17:39;;;;;;;11.18;4.38;;;;;;;23.78;43.84;101443.22;4718402;29;20043;-73
2022/05/10 09:20:06;;;;;;;12.50;3.95;;;;;;;23.77;43.48;101433.34;4735637;29;20054;-70
2022/05/10 09:23:02;;;;;;;14.20;4.93;;;;;;;24.01;43.66;101442.50;4723604;29;20039;-70
2022/05/10 09:25:32;;;;;;;13.30;4.80;;;;;;;24.04;44.41;101443.81;4735488;29;23602;-70
2022/05/10 09:28:36;;;;;;;11.82;4.72;;;;;;;23.72;44.07;101439.69;4710092;29;20055;-70
2022/05/10 09:37:13;;;;;;;11.82;4.97;;;;;;;23.19;45.82;101428.47;4728923;29;20061;-70
2022/05/10 09:39:47;;;;;;;12.70;5.25;;;;;;;23.37;45.64;101413.22;4734327;29;20051;-70
2022/05/10 09:42:35;;;;;;;12.75;5.25;;;;;;;23.62;44.70;101417.72;4719143;29;20035;-72
2022/05/10 09:45:03;;;;;;;9.60;4.90;;;;;;;23.87;44.55;101411.25;4723656;29;20053;-72
2022/05/10 09:47:29;;;;;;;10.77;5.13;;;;;;;24.20;44.61;101409.53;4735100;29;20069;-71
2022/05/10 09:50:10;;;;;;;8.20;4.70;;;;;;;24.28;44.39;101399.81;4720108;29;20076;-71
2022/05/10 09:52:35;;;;;;;9.77;5.13;;;;;;;24.34;44.00;101387.66;4725794;29;20054;-71
2022/05/10 09:55:06;;;;;;;10.88;6.43;;;;;;;24.37;44.09;101398.09;4721127;29;20817;-70
2022/05/10 09:57:34;;;;;;;8.65;5.15;;;;;;;24.47;44.28;101397.19;4737670;29;20053;-70
2022/05/10 10:00:00;;;;;;;15.25;6.30;;;;;;;24.68;44.18;101390.31;4718647;29;20443;-67
2022/05/10 10:02:33;;;;;;;15.63;6.05;;;;;;;25.10;43.14;101404.38;4733361;29;20168;-67
2022/05/10 10:04:59;;;;;;;15.63;5.82;;;;;;;25.13;43.02;101401.03;4722600;29;20054;-67
2022/05/10 10:07:28;;;;;;;9.98;5.43;;;;;;;25.22;42.77;101404.78;4707002;29;20169;-67
2022/05/10 10:09:56;;;;;;;14.82;5.55;;;;;;;25.06;43.63;101414.34;4718518;29;20040;-67
2022/05/10 10:12:43;;;;;;;11.52;5.78;;;;;;;24.99;43.75;101411.94;4717692;29;20046;-67
2022/05/10 10:15:21;;;;;;;11.23;5.95;;;;;;;24.54;43.46;101405.09;4734460;29;20126;-67
2022/05/10 10:17:58;;;;;;;26.65;6.40;;;;;;;24.28;44.45;101391.56;4722449;29;20116;-67
2022/05/10 10:20:48;;;;;;;14.40;5.75;;;;;;;24.14;44.59;101409.88;4719079;29;20043;-67
2022/05/10 10:23:27;;;;;;;11.27;6.45;;;;;;;24.01;44.88;101389.38;4719889;29;20046;-67
2022/05/10 10:25:59;;;;;;;18.13;5.85;;;;;;;23.98;45.30;101390.78;4733534;29;20049;-67
2022/05/10 10:28:29;;;;;;;9.93;5.28;;;;;;;24.00;44.84;101396.81;4701374;29;20043;-67
2022/05/10 10:31:05;;;;;;;9.57;5.70;;;;;;;23.94;45.12;101388.88;4734041;29;20043;-67
2022/05/10 10:34:01;;;;;;;15.55;5.40;;;;;;;24.28;44.88;101380.56;4703299;29;20385;-67
2022/05/10 10:36:35;;;;;;;11.65;6.22;;;;;;;24.82;43.79;101382.16;4735674;29;20063;-67
2022/05/10 10:39:22;;;;;;;8.85;5.28;;;;;;;25.17;43.06;101371.78;4718433;29;20201;-68
2022/05/10 10:41:52;;;;;;;12.27;5.15;;;;;;;25.44;42.15;101371.91;4732752;29;20049;-67
2022/05/10 10:44:23;;;;;;;20.42;6.00;;;;;;;25.74;42.00;101377.22;4705424;29;20093;-68
2022/05/10 10:47:11;;;;;;;12.45;5.55;;;;;;;25.87;40.68;101360.75;4734222;29;20119;-67
2022/05/10 10:49:54;;;;;;;12.77;5.35;;;;;;;25.87;41.12;101377.28;4720329;29;20155;-67
2022/05/10 10:52:21;;;;;;;12.82;5.47;;;;;;;25.68;41.02;101370.97;4722918;29;20039;-70
2022/05/10 10:54:47;;;;;;;8.98;5.57;;;;;;;25.92;40.92;101377.19;4719759;29;20153;-71
2022/05/10 10:58:07;;;;;;;16.25;6.25;;;;;;;25.75;41.03;101359.53;4730756;29;20773;-71
2022/05/10 11:00:56;;;;;;;12.05;4.57;;;;;;;26.09;41.57;101370.28;4653976;30;21117;-71
2022/05/10 11:03:33;;;;;;;13.20;6.13;;;;;;;26.32;40.80;101366.50;4655396;30;20098;-71
2022/05/10 11:06:10;;;;;;;20.85;5.63;;;;;;;25.69;41.12;101380.88;4705454;29;20043;-70
2022/05/10 11:08:51;;;;;;;15.80;5.55;;;;;;;25.40;41.86;101365.34;4732956;29;20047;-69
2022/05/10 11:11:55;;;;;;;11.52;5.53;;;;;;;25.29;42.59;101354.78;4718189;29;20047;-69
2022/05/10 11:14:43;;;;;;;15.73;6.13;;;;;;;24.58;43.25;101348.31;4728168;29;20034;-69
2022/05/10 11:18:00;;;;;;;12.18;6.18;;;;;;;24.18;44.37;101355.88;4689117;29;20055;-69
2022/05/10 11:21:10;;;;;;;16.35;6.50;;;;;;;23.78;45.55;101357.94;4708718;29;20149;-69
2022/05/10 11:23:57;;;;;;;16.85;6.50;;;;;;;23.61;46.54;101363.03;4650032;30;23432;-70
2022/05/10 11:27:00;;;;;;;15.65;6.20;;;;;;;23.56;46.97;101350.97;4676124;30;20078;-70
2022/05/10 11:29:56;;;;;;;17.95;7.65;;;;;;;23.67;47.38;101345.38;4711315;29;20123;-70
2022/05/10 11:32:47;;;;;;;21.15;6.63;;;;;;;23.99;46.91;101342.88;4726691;29;20047;-72
2022/05/10 11:35:36;;;;;;;18.23;6.70;;;;;;;24.20;46.19;101337.97;4715935;29;20059;-70
2022/05/10 11:38:28;;;;;;;25.83;7.25;;;;;;;24.66;45.01;101344.91;4728437;29;20123;-70